createdAt,value
2023-01-28T00:00:51.580Z,5.30
2023-01-28T00:03:37.689Z,5.30
2023-01-28T00:06:23.210Z,5.30
2023-01-28T00:09:08.908Z,5.30
2023-01-28T00:11:54.844Z,5.30
2023-01-28T00:14:40.633Z,5.30
2023-01-28T00:17:26.142Z,5.30
2023-01-28T00:20:12.094Z,5.30
2023-01-28T00:22:57.779Z,5.40
2023-01-28T00:25:43.017Z,5.40
2023-01-28T00:28:28.884Z,5.30
2023-01-28T00:31:27.400Z,5.30
2023-01-28T00:34:12.929Z,5.30
2023-01-28T00:36:59.922Z,5.30
2023-01-28T00:39:45.442Z,5.30
2023-01-28T00:42:30.920Z,5.30
2023-01-28T00:45:17.065Z,5.30
2023-01-28T00:48:03.511Z,5.30
2023-01-28T00:50:52.047Z,5.30
2023-01-28T00:53:38.611Z,5.30
2023-01-28T00:56:24.376Z,5.30
2023-01-28T00:59:09.849Z,5.30
2023-01-28T01:02:12.926Z,5.30
2023-01-28T01:04:58.573Z,5.30
2023-01-28T01:07:48.172Z,5.30
2023-01-28T01:10:36.096Z,5.30
2023-01-28T01:13:27.254Z,5.30
2023-01-28T01:16:18.864Z,5.30
2023-01-28T01:19:09.177Z,5.30
2023-01-28T01:21:56.356Z,5.20
2023-01-28T01:24:44.559Z,5.20
2023-01-28T01:27:30.872Z,5.20
2023-01-28T01:30:17.664Z,5.20
2023-01-28T01:33:03.512Z,5.30
2023-01-28T01:35:54.962Z,5.30
2023-01-28T01:38:41.034Z,5.20
2023-01-28T01:41:31.432Z,5.20
2023-01-28T01:44:54.398Z,5.20
2023-01-28T01:47:52.140Z,5.20
2023-01-28T01:50:45.519Z,5.30
2023-01-28T01:53:36.164Z,5.30
2023-01-28T01:56:27.466Z,5.30
2023-01-28T01:59:17.974Z,5.30
2023-01-28T02:02:07.704Z,5.30
2023-01-28T02:04:55.989Z,5.30
2023-01-28T02:07:49.609Z,5.30
2023-01-28T02:10:36.236Z,5.30
2023-01-28T02:13:27.213Z,5.30
2023-01-28T02:16:15.836Z,5.30
2023-01-28T02:19:01.716Z,5.30
2023-01-28T02:22:20.039Z,5.40
2023-01-28T02:25:38.620Z,5.30
2023-01-28T02:28:28.900Z,5.30
2023-01-28T02:31:36.854Z,5.30
2023-01-28T02:34:32.448Z,5.20
2023-01-28T02:37:26.636Z,5.20
2023-01-28T02:40:25.048Z,5.20
2023-01-28T02:43:10.743Z,5.20
2023-01-28T02:46:14.804Z,5.20
2023-01-28T02:49:00.910Z,5.20
2023-01-28T02:52:03.494Z,5.20
2023-01-28T02:54:57.891Z,5.20
2023-01-28T02:58:01.085Z,5.20
2023-01-28T03:00:56.409Z,5.20
2023-01-28T03:03:56.930Z,5.20
2023-01-28T03:06:53.746Z,5.20
2023-01-28T03:09:43.248Z,5.20
2023-01-28T03:12:48.166Z,5.20
2023-01-28T03:15:58.716Z,5.10
2023-01-28T03:19:10.215Z,5.10
2023-01-28T03:22:23.075Z,5.10
2023-01-28T03:25:30.115Z,5.10
2023-01-28T03:28:39.029Z,5.10
2023-01-28T03:31:44.590Z,5.00
2023-01-28T03:34:50.573Z,5.10
2023-01-28T03:37:36.331Z,5.00
2023-01-28T03:40:32.989Z,5.00
2023-01-28T03:43:18.690Z,5.00
2023-01-28T03:46:06.441Z,5.00
2023-01-28T03:48:51.879Z,5.00
2023-01-28T03:51:37.245Z,5.00
2023-01-28T03:54:22.637Z,5.00
2023-01-28T03:57:08.680Z,5.00
2023-01-28T03:59:54.776Z,5.00
2023-01-28T04:02:40.981Z,5.00
2023-01-28T04:05:32.340Z,5.00
2023-01-28T04:08:19.231Z,4.90
2023-01-28T04:11:37.111Z,4.90
2023-01-28T04:14:24.182Z,4.90
2023-01-28T04:17:16.129Z,4.80
2023-01-28T04:20:04.452Z,4.80
2023-01-28T04:22:50.020Z,4.90
2023-01-28T04:25:35.549Z,4.90
2023-01-28T04:28:24.668Z,4.90
2023-01-28T04:31:10.264Z,4.90
2023-01-28T04:33:58.813Z,4.90
2023-01-28T04:36:56.349Z,4.80
2023-01-28T04:40:01.157Z,4.80
2023-01-28T04:42:59.742Z,4.80
2023-01-28T04:45:55.136Z,4.80
2023-01-28T04:49:00.953Z,4.70
2023-01-28T04:51:59.328Z,4.70
2023-01-28T04:54:50.635Z,4.70
2023-01-28T04:57:36.376Z,4.70
2023-01-28T05:00:28.391Z,4.70
2023-01-28T05:03:13.954Z,4.70
2023-01-28T05:05:59.715Z,4.70
2023-01-28T05:08:59.315Z,4.70
2023-01-28T05:11:45.948Z,4.70
2023-01-28T05:14:32.264Z,4.70
2023-01-28T05:17:27.658Z,4.70
2023-01-28T05:20:14.494Z,4.70
2023-01-28T05:23:00.137Z,4.70
2023-01-28T05:25:54.052Z,4.70
2023-01-28T05:28:39.653Z,4.70
2023-01-28T05:31:26.691Z,4.70
2023-01-28T05:34:12.421Z,4.80
2023-01-28T05:36:58.150Z,4.80
2023-01-28T05:39:54.344Z,4.70
2023-01-28T05:42:42.504Z,4.70
2023-01-28T05:46:08.441Z,4.80
2023-01-28T05:49:18.044Z,4.80
2023-01-28T05:52:29.802Z,4.80
2023-01-28T05:55:15.835Z,4.80
2023-01-28T05:58:01.864Z,4.80
2023-01-28T06:00:47.487Z,4.80
2023-01-28T06:03:35.288Z,4.80
2023-01-28T06:06:21.654Z,4.80
2023-01-28T06:09:07.125Z,4.80
2023-01-28T06:11:53.939Z,4.80
2023-01-28T06:14:39.765Z,4.80
2023-01-28T06:17:32.883Z,4.80
2023-01-28T06:20:23.792Z,4.80
2023-01-28T06:23:09.947Z,4.80
2023-01-28T06:25:56.187Z,4.80
2023-01-28T06:28:42.140Z,4.80
2023-01-28T06:31:27.426Z,4.80
2023-01-28T06:34:13.301Z,4.70
2023-01-28T06:36:58.943Z,4.70
2023-01-28T06:39:44.429Z,4.80
2023-01-28T06:42:30.045Z,4.80
2023-01-28T06:45:15.776Z,4.80
2023-01-28T06:48:01.108Z,4.80
2023-01-28T06:50:51.195Z,4.80
2023-01-28T06:53:36.975Z,4.80
2023-01-28T06:56:22.282Z,4.80
2023-01-28T06:59:10.847Z,4.80
2023-01-28T07:01:56.295Z,4.80
2023-01-28T07:04:41.720Z,4.80
2023-01-28T07:07:27.795Z,4.80
2023-01-28T07:10:13.473Z,4.80
2023-01-28T07:12:59.060Z,4.80
2023-01-28T07:15:44.374Z,4.80
2023-01-28T07:18:30.305Z,4.80
2023-01-28T07:21:15.860Z,4.70
2023-01-28T07:24:01.401Z,4.70
2023-01-28T07:26:48.283Z,4.70
2023-01-28T07:29:34.120Z,4.70
2023-01-28T07:32:19.648Z,4.70
2023-01-28T07:35:05.993Z,4.70
2023-01-28T07:38:01.368Z,4.70
2023-01-28T07:40:52.963Z,4.70
2023-01-28T07:43:38.379Z,4.70
2023-01-28T07:46:23.884Z,4.60
2023-01-28T07:49:09.648Z,4.50
2023-01-28T07:52:08.744Z,4.40
2023-01-28T07:54:54.322Z,4.30
2023-01-28T07:57:51.991Z,4.10
2023-01-28T08:00:38.496Z,4.10
2023-01-28T08:03:24.381Z,4.20
2023-01-28T08:06:11.643Z,4.10
2023-01-28T08:08:57.205Z,4.00
2023-01-28T08:11:45.435Z,4.10
2023-01-28T08:14:30.869Z,4.10
2023-01-28T08:17:16.407Z,4.10
2023-01-28T08:20:02.113Z,4.20
2023-01-28T08:22:47.711Z,4.30
2023-01-28T08:25:34.016Z,4.30
2023-01-28T08:28:20.315Z,4.40
2023-01-28T08:31:06.065Z,4.40
2023-01-28T08:33:51.637Z,4.50
2023-01-28T08:36:36.938Z,4.50
2023-01-28T08:39:22.223Z,4.60
2023-01-28T08:42:08.029Z,4.60
2023-01-28T08:44:53.393Z,4.50
2023-01-28T08:47:51.337Z,4.40
2023-01-28T08:50:38.504Z,4.30
2023-01-28T08:53:24.248Z,4.20
2023-01-28T08:56:10.013Z,4.10
2023-01-28T08:58:55.561Z,4.00
2023-01-28T09:01:41.739Z,4.00
2023-01-28T09:04:28.486Z,4.00
2023-01-28T09:07:14.512Z,4.00
2023-01-28T09:09:59.730Z,3.90
2023-01-28T09:12:45.332Z,3.90
2023-01-28T09:15:31.007Z,3.90
2023-01-28T09:18:16.831Z,3.90
2023-01-28T09:21:05.766Z,3.90
2023-01-28T09:23:51.264Z,3.90
2023-01-28T09:26:36.558Z,4.10
2023-01-28T09:29:22.154Z,4.30
2023-01-28T09:32:07.456Z,4.50
2023-01-28T09:34:53.043Z,4.70
2023-01-28T09:37:38.457Z,4.80
2023-01-28T09:40:34.426Z,4.90
2023-01-28T09:43:52.543Z,4.90
2023-01-28T09:46:39.541Z,4.90
2023-01-28T09:49:42.974Z,4.90
2023-01-28T09:52:51.123Z,4.90
2023-01-28T09:55:41.212Z,5.00
2023-01-28T09:58:26.618Z,4.90
2023-01-28T10:01:31.738Z,4.90
2023-01-28T10:04:25.385Z,4.90
2023-01-28T10:07:36.592Z,5.00
2023-01-28T10:10:29.154Z,5.00
2023-01-28T10:13:42.707Z,4.90
2023-01-28T10:16:37.639Z,4.90
2023-01-28T10:19:28.420Z,4.90
2023-01-28T10:22:20.751Z,4.90
2023-01-28T10:25:14.875Z,4.90
2023-01-28T10:28:02.281Z,5.00
2023-01-28T10:30:50.605Z,5.00
2023-01-28T10:33:39.952Z,5.00
2023-01-28T10:36:25.667Z,5.00
2023-01-28T10:39:17.665Z,5.10
2023-01-28T10:42:10.204Z,5.10
2023-01-28T10:45:05.470Z,5.20
2023-01-28T10:47:56.253Z,5.30
2023-01-28T10:50:51.488Z,5.40
2023-01-28T10:53:45.873Z,5.40
2023-01-28T10:56:35.753Z,5.50
2023-01-28T10:59:21.397Z,5.50
2023-01-28T11:02:32.602Z,5.60
2023-01-28T11:05:29.787Z,5.70
2023-01-28T11:08:17.423Z,5.80
2023-01-28T11:11:05.264Z,5.90
2023-01-28T11:13:52.052Z,6.10
2023-01-28T11:16:40.488Z,6.20
2023-01-28T11:19:33.956Z,6.40
2023-01-28T11:22:39.392Z,6.60
2023-01-28T11:25:32.324Z,7.00
2023-01-28T11:28:22.229Z,7.40
2023-01-28T11:31:08.447Z,8.10
2023-01-28T11:34:02.313Z,8.80
2023-01-28T11:36:52.384Z,9.50
2023-01-28T11:39:37.586Z,10.20
2023-01-28T11:42:23.245Z,11.00
2023-01-28T11:45:17.918Z,11.70
2023-01-28T11:48:14.658Z,12.30
2023-01-28T11:51:14.948Z,13.20
2023-01-28T11:54:33.146Z,13.80
2023-01-28T11:57:34.257Z,14.70
2023-01-28T12:00:53.451Z,15.40
2023-01-28T12:04:11.263Z,16.10
2023-01-28T12:07:14.929Z,16.90
2023-01-28T12:10:20.975Z,17.50
2023-01-28T12:13:31.018Z,18.10
2023-01-28T12:16:46.646Z,18.80
2023-01-28T12:19:38.971Z,19.50
2023-01-28T12:22:51.118Z,19.90
2023-01-28T12:25:55.170Z,20.40
2023-01-28T12:29:08.593Z,21.00
2023-01-28T12:32:41.996Z,21.20
2023-01-28T12:36:02.594Z,21.20
2023-01-28T12:39:17.036Z,21.80
2023-01-28T12:42:13.148Z,22.50
2023-01-28T12:45:14.518Z,23.40
2023-01-28T12:48:20.696Z,24.20
2023-01-28T12:51:15.043Z,25.00
2023-01-28T12:54:06.220Z,25.50
2023-01-28T12:57:00.341Z,25.80
2023-01-28T13:00:20.864Z,25.80
2023-01-28T13:03:35.604Z,25.10
2023-01-28T13:06:27.971Z,24.60
2023-01-28T13:09:26.144Z,24.80
2023-01-28T13:12:13.898Z,25.60
2023-01-28T13:15:00.825Z,25.30
2023-01-28T13:18:01.430Z,25.10
2023-01-28T13:20:53.541Z,24.70
2023-01-28T13:23:50.473Z,24.00
2023-01-28T13:26:45.009Z,23.70
2023-01-28T13:29:33.164Z,23.80
2023-01-28T13:32:37.066Z,24.40
2023-01-28T13:35:38.183Z,25.20
2023-01-28T13:38:24.861Z,25.30
2023-01-28T13:41:10.021Z,25.00
2023-01-28T13:44:01.728Z,25.10
2023-01-28T13:46:47.526Z,25.40
2023-01-28T13:49:49.906Z,25.00
2023-01-28T13:52:59.447Z,24.90
2023-01-28T13:55:47.726Z,24.60
2023-01-28T13:58:55.161Z,24.40
2023-01-28T14:02:15.853Z,24.60
2023-01-28T14:05:40.069Z,25.40
2023-01-28T14:08:50.169Z,26.00
2023-01-28T14:12:05.178Z,26.00
2023-01-28T14:15:00.729Z,25.90
2023-01-28T14:17:48.744Z,26.50
2023-01-28T14:20:42.239Z,27.00
2023-01-28T14:23:31.156Z,26.80
2023-01-28T14:26:56.246Z,26.90
2023-01-28T14:30:16.042Z,27.00
2023-01-28T14:33:02.414Z,27.40
2023-01-28T14:35:49.624Z,26.80
2023-01-28T14:39:00.166Z,26.80
2023-01-28T14:41:48.909Z,26.40
2023-01-28T14:44:39.248Z,26.30
2023-01-28T14:47:33.573Z,26.00
2023-01-28T14:50:40.100Z,26.00
2023-01-28T14:53:43.723Z,26.50
2023-01-28T14:56:50.946Z,26.70
2023-01-28T14:59:54.962Z,26.90
2023-01-28T15:02:43.803Z,27.10
2023-01-28T15:05:30.306Z,27.20
2023-01-28T15:08:24.949Z,27.90
2023-01-28T15:11:14.624Z,28.00
2023-01-28T15:14:00.832Z,26.00
2023-01-28T15:16:53.284Z,23.70
2023-01-28T15:19:40.761Z,21.90
2023-01-28T15:22:28.566Z,20.40
2023-01-28T15:25:22.846Z,19.10
2023-01-28T15:28:20.764Z,17.90
2023-01-28T15:31:07.033Z,16.80
2023-01-28T15:34:14.173Z,15.70
2023-01-28T15:37:02.497Z,14.80
2023-01-28T15:39:48.228Z,14.20
2023-01-28T15:42:34.201Z,13.60
2023-01-28T15:45:25.941Z,13.10
2023-01-28T15:48:12.260Z,12.70
2023-01-28T15:51:04.237Z,12.50
2023-01-28T15:53:52.064Z,12.10
2023-01-28T15:56:37.655Z,11.80
2023-01-28T15:59:27.202Z,11.60
2023-01-28T16:02:15.687Z,11.30
2023-01-28T16:05:10.543Z,10.90
2023-01-28T16:07:57.664Z,10.50
2023-01-28T16:10:51.365Z,10.10
2023-01-28T16:13:42.816Z,9.80
2023-01-28T16:16:38.357Z,9.60
2023-01-28T16:19:37.230Z,9.40
2023-01-28T16:22:31.916Z,9.20
2023-01-28T16:25:33.199Z,9.10
2023-01-28T16:28:20.405Z,8.80
2023-01-28T16:31:10.780Z,8.60
2023-01-28T16:33:56.311Z,8.50
2023-01-28T16:36:41.723Z,8.30
2023-01-28T16:39:27.906Z,8.30
2023-01-28T16:42:13.538Z,8.10
2023-01-28T16:44:59.118Z,8.00
2023-01-28T16:47:44.884Z,7.90
2023-01-28T16:50:32.619Z,7.90
2023-01-28T16:53:38.021Z,7.80
2023-01-28T16:56:44.431Z,7.70
2023-01-28T16:59:31.032Z,7.70
2023-01-28T17:02:17.839Z,7.70
2023-01-28T17:05:03.107Z,7.60
2023-01-28T17:07:49.682Z,7.50
2023-01-28T17:10:35.315Z,7.50
2023-01-28T17:13:21.451Z,7.40
2023-01-28T17:16:07.524Z,7.30
2023-01-28T17:18:54.236Z,7.20
2023-01-28T17:21:39.910Z,7.10
2023-01-28T17:24:25.583Z,7.10
2023-01-28T17:27:13.836Z,7.00
2023-01-28T17:29:59.107Z,7.00
2023-01-28T17:32:44.658Z,7.00
2023-01-28T17:35:30.961Z,7.00
2023-01-28T17:38:16.932Z,6.90
2023-01-28T17:41:08.389Z,6.80
2023-01-28T17:43:55.281Z,6.80
2023-01-28T17:46:44.297Z,6.80
2023-01-28T17:49:29.535Z,6.70
2023-01-28T17:52:14.953Z,6.70
2023-01-28T17:55:01.769Z,6.70
2023-01-28T17:57:47.839Z,6.60
2023-01-28T18:00:33.624Z,6.60
2023-01-28T18:03:22.266Z,6.60
2023-01-28T18:06:07.792Z,6.60
2023-01-28T18:08:54.233Z,6.60
2023-01-28T18:11:40.745Z,6.60
2023-01-28T18:14:26.542Z,6.60
2023-01-28T18:17:12.109Z,6.60
2023-01-28T18:19:57.741Z,6.60
2023-01-28T18:22:43.883Z,6.50
2023-01-28T18:25:29.382Z,6.50
2023-01-28T18:28:14.827Z,6.50
2023-01-28T18:31:08.426Z,6.50
2023-01-28T18:33:53.727Z,6.50
2023-01-28T18:36:42.702Z,6.50
2023-01-28T18:39:30.405Z,6.50
2023-01-28T18:42:16.267Z,6.50
2023-01-28T18:45:01.716Z,6.50
2023-01-28T18:47:48.534Z,6.50
2023-01-28T18:50:34.317Z,6.50
2023-01-28T18:53:21.353Z,6.40
2023-01-28T18:56:09.915Z,6.40
2023-01-28T18:58:59.345Z,6.40
2023-01-28T19:01:48.125Z,6.40
2023-01-28T19:04:33.792Z,6.40
2023-01-28T19:07:19.073Z,6.40
2023-01-28T19:10:04.938Z,6.40
2023-01-28T19:12:50.527Z,6.40
2023-01-28T19:15:38.249Z,6.40
2023-01-28T19:18:24.158Z,6.40
2023-01-28T19:21:10.335Z,6.40
2023-01-28T19:23:58.397Z,6.40
2023-01-28T19:26:46.302Z,6.40
2023-01-28T19:29:31.780Z,6.40
2023-01-28T19:32:17.159Z,6.40
2023-01-28T19:35:03.100Z,6.40
2023-01-28T19:37:48.587Z,6.40
2023-01-28T19:40:34.912Z,6.40
2023-01-28T19:43:23.988Z,6.30
2023-01-28T19:46:12.706Z,6.30
2023-01-28T19:48:58.708Z,6.30
2023-01-28T19:51:45.199Z,6.30
2023-01-28T19:54:31.035Z,6.30
2023-01-28T19:57:19.584Z,6.20
2023-01-28T20:00:05.658Z,6.30
2023-01-28T20:02:51.400Z,6.20
2023-01-28T20:05:37.585Z,6.20
2023-01-28T20:08:23.171Z,6.20
2023-01-28T20:11:16.459Z,6.20
2023-01-28T20:14:02.293Z,6.20
2023-01-28T20:16:47.817Z,6.20
2023-01-28T20:19:34.879Z,6.20
2023-01-28T20:22:21.528Z,6.20
2023-01-28T20:25:08.860Z,6.20
2023-01-28T20:27:53.969Z,6.20
2023-01-28T20:30:45.627Z,6.20
2023-01-28T20:33:30.985Z,6.20
2023-01-28T20:36:16.669Z,6.20
2023-01-28T20:39:03.805Z,6.20
2023-01-28T20:41:55.400Z,6.20
2023-01-28T20:44:40.822Z,6.10
2023-01-28T20:47:26.383Z,6.10
2023-01-28T20:50:11.900Z,6.10
2023-01-28T20:52:57.957Z,6.10
2023-01-28T20:55:43.443Z,6.00
2023-01-28T20:58:29.063Z,6.00
2023-01-28T21:01:20.254Z,6.00
2023-01-28T21:04:09.058Z,6.00
2023-01-28T21:06:55.923Z,5.90
2023-01-28T21:09:41.533Z,5.90
2023-01-28T21:12:29.929Z,5.90
2023-01-28T21:15:15.389Z,5.90
2023-01-28T21:18:01.082Z,5.90
2023-01-28T21:20:50.234Z,5.90
2023-01-28T21:23:35.885Z,5.90
2023-01-28T21:26:21.853Z,5.90
2023-01-28T21:29:07.988Z,5.90
2023-01-28T21:31:53.548Z,5.90
2023-01-28T21:34:39.280Z,5.90
2023-01-28T21:37:25.581Z,5.90
2023-01-28T21:40:11.584Z,5.90
2023-01-28T21:42:57.117Z,5.90
2023-01-28T21:45:48.417Z,5.90
2023-01-28T21:48:34.148Z,5.90
2023-01-28T21:51:38.044Z,5.90
2023-01-28T21:54:23.281Z,5.90
2023-01-28T21:57:08.812Z,5.90
2023-01-28T21:59:54.091Z,5.90
2023-01-28T22:02:40.388Z,5.90
2023-01-28T22:05:26.000Z,5.90
2023-01-28T22:08:11.652Z,5.90
2023-01-28T22:10:57.420Z,5.80
2023-01-28T22:13:43.225Z,5.90
2023-01-28T22:16:31.192Z,5.80
2023-01-28T22:19:16.647Z,5.90
2023-01-28T22:22:01.974Z,5.80
2023-01-28T22:24:47.301Z,5.80
2023-01-28T22:27:32.814Z,5.80
2023-01-28T22:30:18.725Z,5.80
2023-01-28T22:33:05.973Z,5.80
2023-01-28T22:35:54.569Z,5.80
2023-01-28T22:38:42.710Z,5.80
2023-01-28T22:41:31.152Z,5.80
2023-01-28T22:44:16.402Z,5.80
2023-01-28T22:47:02.145Z,5.80
2023-01-28T22:49:47.911Z,5.90
2023-01-28T22:52:36.095Z,5.80
2023-01-28T22:55:23.947Z,5.80
2023-01-28T22:58:09.512Z,5.80
2023-01-28T23:00:55.004Z,5.80
2023-01-28T23:03:43.481Z,5.90
2023-01-28T23:06:28.933Z,5.80
2023-01-28T23:09:14.199Z,5.80
2023-01-28T23:11:59.721Z,5.80
2023-01-28T23:15:03.555Z,5.90
2023-01-28T23:18:07.656Z,5.90
2023-01-28T23:21:18.028Z,5.90
2023-01-28T23:24:22.769Z,5.90
2023-01-28T23:27:10.614Z,5.90
2023-01-28T23:29:56.206Z,5.90
2023-01-28T23:32:47.118Z,6.00
2023-01-28T23:35:32.763Z,6.00
2023-01-28T23:38:18.190Z,6.00
2023-01-28T23:41:03.817Z,5.90
2023-01-28T23:43:51.928Z,6.00
2023-01-28T23:46:46.910Z,6.00
2023-01-28T23:49:32.230Z,6.00
2023-01-28T23:52:17.769Z,6.00
2023-01-28T23:55:03.497Z,5.90
2023-01-28T23:57:48.811Z,5.90
